Washington, DC (56902)

1:37 PM EST on November 27, 2014 (GMT -0500)
Logan Circle | Change Station
CLOSE
Current Station
Personal Weather Station
Location: Washington, DC
Elevation: 108 ft
Nearby Weather Stations

Elev 108 ft 38.91 °N, 77.03 °W | Updated 20 seconds ago

Overcast
Overcast
46.8 °F
Feels Like 47 °F
N
0.0
Wind Variable Wind from North
Gusts 0.0 mph

Today
High -- | Low -- °F
--% Chance of Precip.
Yesterday
High -- | Low -- °F
Precip. -- in
7:03 AM 4:47 PM
Waxing Crescent, 31% visible
Pressure 30.06 in
Visibility 10.0 miles
Clouds Scattered Clouds 3200 ft
Mostly Cloudy 7500 ft
Mostly Cloudy 25000 ft
Windchill 47 °F
Dew Point 35 °F
Humidity 63%
Rainfall 0.00 in
Snow Depth Not available.
UV 1 out of 12
Pollen Not available.
Air Quality Not available.
Flu Activity Not available.
METAR KDCA 271752Z 31009KT 10SM SCT032 BKN075 BKN250 08/00 A3005 RMK AO2 SLP177 60000 T00780000 10078 20039 55007

More Conditions Fewer Conditions

Pressure 30.06 in
Visibility 10.0 miles
Clouds Scattered Clouds 3200 ft
Mostly Cloudy 7500 ft
Mostly Cloudy 25000 ft
Windchill 47 °F
Dew Point 35 °F
Humidity 63%
Rainfall 0.00 in
Snow Depth Not available.
UV 1 out of 12
Pollen Not available.
Air Quality Not available.
Flu Activity Not available.
METAR KDCA 271752Z 31009KT 10SM SCT032 BKN075 BKN250 08/00 A3005 RMK AO2 SLP177 60000 T00780000 10078 20039 55007

More Conditions Fewer Conditions

10-Day Weather Forecast

Almanac

Astronomy

Nov. 27, 2014 Rise Set
Actual Time
Civil Twilight
Nautical Twilight
Astronomical Twilight
Moon
Length of Visible Light
Length of Day
Tomorrow will be .
, % of the Moon is Illuminated

Today's Extremes

State Highs State Lows

Community

WunderPhotos

Upload Photos

1,774,083 photos uploaded!

WunderBlogs® & News

Nearby

Air Quality

  Air Quality AQ Index Pollutant
Not available.

Snow Depth

Station Depth Elevation

Earthquake Activity

City Distance Mag. Time & Date
Minimum magnitude displayed is 2.5.

Coastal Water Temperatures

Place Temperature

Nearby Weather Stations